Time;durP1;ratioP1;P1;durP2;ratioP2;P2;SDS_P1;SDS_P2;PMS_P1;PMS_P2;Temp;Humidity;BMP_temperature;BMP_pressure;BME280_temperature;BME280_humidity;BME280_pressure;Samples;Min_cycle;Max_cycle;Signal;HPM_P1;HPM_P2
2023/01/13 00:00:42;;;;;;;11.13;6.72;;;;;;;;;;5102887;28;20059;-81
2023/01/13 00:03:08;;;;;;;11.80;6.70;;;;;;;;;;5108674;28;20016;-82
2023/01/13 00:05:34;;;;;;;13.85;6.65;;;;;;;;;;5120146;28;20043;-82
2023/01/13 00:08:03;;;;;;;10.77;6.25;;;;;;;;;;5106777;28;20021;-82
2023/01/13 00:10:29;;;;;;;11.02;6.07;;;;;;;;;;5102773;28;20044;-82
2023/01/13 00:12:55;;;;;;;11.00;6.10;;;;;;;;;;5108449;28;20024;-82
2023/01/13 00:15:21;;;;;;;10.98;6.15;;;;;;;;;;5101973;28;20020;-83
2023/01/13 00:17:48;;;;;;;11.57;6.95;;;;;;;;;;5112825;28;20034;-82
2023/01/13 00:20:14;;;;;;;10.95;6.68;;;;;;;;;;5107700;28;20027;-81
2023/01/13 00:22:40;;;;;;;11.90;6.93;;;;;;;;;;5118499;28;20043;-83
2023/01/13 00:25:06;;;;;;;13.38;6.85;;;;;;;;;;5106608;27;20046;-82
2023/01/13 00:27:32;;;;;;;12.73;8.15;;;;;;;;;;5108547;27;20035;-82
2023/01/13 00:29:59;;;;;;;13.75;7.65;;;;;;;;;;5100196;28;20081;-81
2023/01/13 00:32:25;;;;;;;11.20;7.25;;;;;;;;;;5107155;28;20024;-82
2023/01/13 00:34:51;;;;;;;16.90;8.70;;;;;;;;;;5121865;28;20034;-82
2023/01/13 00:37:18;;;;;;;22.67;11.32;;;;;;;;;;5108181;28;21330;-82
2023/01/13 00:39:44;;;;;;;21.30;9.10;;;;;;;;;;5132196;27;20034;-81
2023/01/13 00:44:56;;;;;;;20.95;9.88;;;;;;;;;;5100604;28;20578;-81
2023/01/13 00:47:22;;;;;;;17.58;9.43;;;;;;;;;;5114390;28;20054;-81
2023/01/13 00:49:49;;;;;;;20.95;9.65;;;;;;;;;;5119724;28;20085;-82
2023/01/13 00:52:15;;;;;;;22.98;9.80;;;;;;;;;;5120727;28;20021;-81
2023/01/13 00:54:41;;;;;;;14.48;8.20;;;;;;;;;;5112374;28;20537;-80
2023/01/13 00:57:07;;;;;;;17.85;7.70;;;;;;;;;;5124223;28;20108;-80
2023/01/13 00:59:33;;;;;;;12.93;7.40;;;;;;;;;;5124617;28;20020;-81
2023/01/13 01:01:59;;;;;;;11.30;7.28;;;;;;;;;;5116806;28;20020;-81
2023/01/13 01:04:25;;;;;;;13.73;6.60;;;;;;;;;;5121475;28;20059;-81
2023/01/13 01:06:51;;;;;;;12.90;6.97;;;;;;;;;;5118490;28;20032;-81
2023/01/13 01:09:17;;;;;;;10.65;6.72;;;;;;;;;;5121669;28;20254;-80
2023/01/13 01:11:44;;;;;;;12.35;6.43;;;;;;;;;;5119312;28;20028;-81
2023/01/13 01:14:11;;;;;;;11.52;6.60;;;;;;;;;;5119378;28;20107;-81
2023/01/13 01:16:38;;;;;;;10.27;6.07;;;;;;;;;;5111512;28;20027;-81
2023/01/13 01:19:04;;;;;;;11.23;6.53;;;;;;;;;;5116416;28;20623;-81
2023/01/13 01:21:30;;;;;;;11.80;6.18;;;;;;;;;;5100617;28;20142;-81
2023/01/13 01:23:58;;;;;;;12.02;6.97;;;;;;;;;;5106751;28;20298;-81
2023/01/13 01:26:25;;;;;;;14.55;6.78;;;;;;;;;;5111303;28;20420;-81
2023/01/13 01:28:51;;;;;;;13.07;7.35;;;;;;;;;;5121681;28;20373;-81
2023/01/13 01:31:19;;;;;;;12.98;7.68;;;;;;;;;;5121142;28;20051;-82
2023/01/13 01:33:48;;;;;;;10.15;6.93;;;;;;;;;;5117281;28;20031;-81
2023/01/13 01:36:15;;;;;;;11.38;6.35;;;;;;;;;;5106453;28;20038;-81
2023/01/13 01:38:41;;;;;;;11.68;7.00;;;;;;;;;;5118902;28;20019;-80
2023/01/13 01:41:07;;;;;;;10.93;6.45;;;;;;;;;;5118137;28;20561;-81
2023/01/13 01:44:05;;;;;;;10.82;6.40;;;;;;;;;;5117395;28;20054;-80
2023/01/13 01:46:38;;;;;;;9.75;5.85;;;;;;;;;;5062151;28;20036;-81
2023/01/13 01:49:08;;;;;;;14.18;7.13;;;;;;;;;;5098512;28;20024;-80
2023/01/13 01:51:38;;;;;;;13.68;6.22;;;;;;;;;;5100581;28;20028;-81
2023/01/13 01:54:05;;;;;;;11.35;6.38;;;;;;;;;;5103689;28;20019;-81
2023/01/13 01:56:33;;;;;;;10.55;5.90;;;;;;;;;;5112972;27;20024;-81
2023/01/13 01:58:59;;;;;;;10.85;6.13;;;;;;;;;;5099484;28;20390;-81
2023/01/13 02:01:25;;;;;;;10.75;6.28;;;;;;;;;;5113271;27;20741;-81
2023/01/13 02:03:55;;;;;;;9.75;6.28;;;;;;;;;;5119887;28;20041;-81
2023/01/13 02:06:21;;;;;;;10.88;6.03;;;;;;;;;;5101883;28;20494;-81
2023/01/13 02:08:47;;;;;;;9.80;6.13;;;;;;;;;;5108249;28;20055;-81
2023/01/13 02:14:15;;;;;;;10.93;6.30;;;;;;;;;;5109603;28;20043;-81
2023/01/13 02:16:46;;;;;;;9.55;5.90;;;;;;;;;;5110442;28;20032;-81
2023/01/13 02:19:39;;;;;;;10.25;6.25;;;;;;;;;;5104518;28;20057;-81
2023/01/13 02:22:14;;;;;;;10.32;6.10;;;;;;;;;;5091150;28;20036;-81
2023/01/13 02:24:53;;;;;;;9.82;6.47;;;;;;;;;;5113153;28;20019;-81
2023/01/13 02:27:22;;;;;;;9.15;5.88;;;;;;;;;;5110762;27;20164;-80
2023/01/13 02:33:13;;;;;;;10.20;5.95;;;;;;;;;;5111538;28;20046;-79
2023/01/13 02:35:57;;;;;;;10.50;6.38;;;;;;;;;;5099438;28;20035;-81
2023/01/13 02:38:27;;;;;;;10.02;6.10;;;;;;;;;;5114659;27;20023;-81
2023/01/13 02:40:58;;;;;;;10.00;6.53;;;;;;;;;;5120302;28;20035;-80
2023/01/13 02:46:23;;;;;;;10.27;6.45;;;;;;;;;;5098716;28;20039;-81
2023/01/13 02:48:49;;;;;;;12.75;7.57;;;;;;;;;;5114086;28;20026;-80
2023/01/13 02:51:16;;;;;;;11.63;6.93;;;;;;;;;;5111233;28;20028;-82
2023/01/13 02:53:46;;;;;;;14.20;7.57;;;;;;;;;;5117716;28;20028;-82
2023/01/13 02:56:14;;;;;;;10.75;7.47;;;;;;;;;;5118583;28;20024;-81
2023/01/13 02:58:41;;;;;;;13.05;7.97;;;;;;;;;;5106442;28;20025;-82
2023/01/13 03:01:07;;;;;;;13.82;8.32;;;;;;;;;;5110693;28;20033;-81
2023/01/13 03:03:35;;;;;;;11.20;7.90;;;;;;;;;;5119510;28;20063;-82
2023/01/13 03:06:18;;;;;;;11.32;7.38;;;;;;;;;;5131203;28;20079;-79
2023/01/13 03:08:46;;;;;;;10.88;7.95;;;;;;;;;;5116825;28;20039;-79
2023/01/13 03:11:13;;;;;;;13.93;8.57;;;;;;;;;;5115780;28;20078;-79
2023/01/13 03:13:55;;;;;;;14.48;8.18;;;;;;;;;;5115356;28;20050;-79
2023/01/13 03:16:24;;;;;;;11.15;7.88;;;;;;;;;;5118091;27;20047;-78
2023/01/13 03:19:09;;;;;;;13.85;8.07;;;;;;;;;;5116215;28;20023;-81
2023/01/13 03:21:38;;;;;;;13.95;9.25;;;;;;;;;;5112376;28;20028;-82
2023/01/13 03:24:12;;;;;;;13.40;8.68;;;;;;;;;;5098099;28;20113;-82
2023/01/13 03:26:42;;;;;;;14.00;9.20;;;;;;;;;;5099386;28;20035;-82
2023/01/13 03:29:11;;;;;;;14.50;9.15;;;;;;;;;;5098442;28;20612;-82
2023/01/13 03:31:40;;;;;;;14.77;8.00;;;;;;;;;;5116721;28;20031;-82
2023/01/13 03:34:09;;;;;;;12.00;8.55;;;;;;;;;;5118733;28;20019;-82
2023/01/13 03:36:36;;;;;;;13.65;8.38;;;;;;;;;;5100177;28;20089;-82
2023/01/13 03:39:09;;;;;;;16.58;8.40;;;;;;;;;;5112605;28;20023;-82
2023/01/13 03:41:42;;;;;;;9.93;7.03;;;;;;;;;;5100192;28;20026;-82
2023/01/13 03:44:23;;;;;;;10.50;6.68;;;;;;;;;;5116476;28;20524;-81
2023/01/13 03:46:49;;;;;;;10.88;7.25;;;;;;;;;;5112336;28;20032;-81
2023/01/13 03:49:17;;;;;;;13.32;8.30;;;;;;;;;;5124123;28;20020;-79
2023/01/13 03:51:46;;;;;;;12.80;8.32;;;;;;;;;;5128500;28;20095;-80
2023/01/13 03:54:14;;;;;;;13.15;7.88;;;;;;;;;;5116275;28;20058;-78
2023/01/13 03:56:46;;;;;;;15.23;7.97;;;;;;;;;;5125757;28;20000;-80
2023/01/13 03:59:16;;;;;;;13.55;8.85;;;;;;;;;;5115425;28;20044;-82
2023/01/13 04:01:52;;;;;;;14.45;9.20;;;;;;;;;;5098429;28;20107;-81
2023/01/13 04:04:27;;;;;;;13.40;8.93;;;;;;;;;;5101398;28;20103;-81
2023/01/13 04:07:16;;;;;;;14.00;9.43;;;;;;;;;;5116560;28;20043;-82
2023/01/13 04:09:42;;;;;;;14.88;8.88;;;;;;;;;;5093262;28;20032;-82
2023/01/13 04:12:12;;;;;;;14.15;9.25;;;;;;;;;;5097907;28;20024;-82
2023/01/13 04:14:38;;;;;;;16.60;10.68;;;;;;;;;;5098004;28;20060;-81
2023/01/13 04:17:05;;;;;;;15.50;9.48;;;;;;;;;;5114216;28;20091;-81
2023/01/13 04:19:31;;;;;;;15.15;10.48;;;;;;;;;;5117804;28;20024;-82
2023/01/13 04:21:58;;;;;;;15.98;10.00;;;;;;;;;;5117919;28;20023;-82
2023/01/13 04:24:24;;;;;;;21.35;12.10;;;;;;;;;;5116982;28;20028;-82
2023/01/13 04:26:50;;;;;;;18.50;10.85;;;;;;;;;;5104143;28;20081;-82
2023/01/13 04:29:16;;;;;;;15.02;9.85;;;;;;;;;;5097139;28;20150;-81
2023/01/13 04:31:42;;;;;;;13.02;9.45;;;;;;;;;;5095492;28;20062;-81
2023/01/13 04:34:09;;;;;;;15.07;9.68;;;;;;;;;;5102558;28;20027;-82
2023/01/13 04:36:35;;;;;;;13.00;9.57;;;;;;;;;;5111229;28;20024;-82
2023/01/13 04:39:02;;;;;;;16.63;9.18;;;;;;;;;;5103018;28;20023;-81
2023/01/13 04:41:56;;;;;;;14.57;10.25;;;;;;;;;;5117267;28;20011;-81
2023/01/13 04:44:14;;;;;;;14.68;9.57;;;;;;;;;;5096957;28;20109;-81
2023/01/13 04:46:40;;;;;;;16.02;9.07;;;;;;;;;;5105271;28;20477;-82
2023/01/13 04:49:06;;;;;;;13.63;9.32;;;;;;;;;;5107870;28;20039;-82
2023/01/13 04:51:32;;;;;;;15.38;9.30;;;;;;;;;;5108233;28;20023;-82
2023/01/13 04:53:58;;;;;;;14.52;9.82;;;;;;;;;;5119477;28;20043;-80
2023/01/13 04:56:24;;;;;;;14.93;9.23;;;;;;;;;;5102302;28;20024;-80
2023/01/13 04:58:50;;;;;;;13.50;9.48;;;;;;;;;;5126415;28;20031;-81
2023/01/13 05:01:16;;;;;;;13.02;9.15;;;;;;;;;;5120005;28;20382;-82
2023/01/13 05:03:42;;;;;;;14.55;8.95;;;;;;;;;;5100040;27;20031;-80
2023/01/13 05:06:08;;;;;;;13.73;8.90;;;;;;;;;;5100141;27;20082;-82
2023/01/13 05:08:34;;;;;;;15.23;8.75;;;;;;;;;;5117233;27;20049;-82
2023/01/13 05:11:00;;;;;;;13.40;9.32;;;;;;;;;;5119823;28;20023;-82
2023/01/13 05:18:56;;;;;;;13.10;8.63;;;;;;;;;;5096261;28;20031;-81
2023/01/13 05:26:54;;;;;;;17.83;9.70;;;;;;;;;;5096443;28;20093;-82
2023/01/13 05:29:20;;;;;;;13.55;8.90;;;;;;;;;;5101378;28;20020;-81
2023/01/13 05:31:46;;;;;;;17.38;9.23;;;;;;;;;;5116219;28;20582;-80
2023/01/13 05:34:12;;;;;;;12.77;8.50;;;;;;;;;;5118005;28;20023;-81
2023/01/13 05:36:38;;;;;;;13.73;9.05;;;;;;;;;;5115743;28;20049;-82
2023/01/13 05:39:04;;;;;;;13.70;8.32;;;;;;;;;;5118475;28;20543;-82
2023/01/13 05:44:14;;;;;;;13.48;8.57;;;;;;;;;;5123662;28;20051;-81
2023/01/13 05:46:40;;;;;;;16.38;8.88;;;;;;;;;;5116681;28;20035;-82
2023/01/13 05:49:07;;;;;;;19.33;11.88;;;;;;;;;;5118323;28;20443;-82
2023/01/13 05:51:32;;;;;;;30.45;16.73;;;;;;;;;;5105667;28;20076;-82
2023/01/13 05:53:59;;;;;;;18.35;13.05;;;;;;;;;;5101796;28;20032;-81
2023/01/13 05:56:25;;;;;;;20.02;12.95;;;;;;;;;;5103713;28;20028;-82
2023/01/13 05:58:51;;;;;;;16.15;10.23;;;;;;;;;;5109920;27;20032;-81
2023/01/13 06:01:17;;;;;;;15.77;9.70;;;;;;;;;;5111058;27;20091;-82
2023/01/13 06:03:43;;;;;;;14.27;10.25;;;;;;;;;;5113785;28;20389;-82
2023/01/13 06:06:09;;;;;;;13.85;9.50;;;;;;;;;;5116734;28;20031;-81
2023/01/13 06:08:35;;;;;;;14.60;9.88;;;;;;;;;;5106616;27;20087;-81
2023/01/13 06:11:01;;;;;;;20.45;10.10;;;;;;;;;;5120956;27;20091;-81
2023/01/13 06:13:27;;;;;;;19.67;11.38;;;;;;;;;;5104515;28;20056;-82
2023/01/13 06:15:57;;;;;;;19.40;11.85;;;;;;;;;;5100184;28;20050;-82
2023/01/13 06:18:23;;;;;;;22.58;13.43;;;;;;;;;;5108100;28;20726;-82
2023/01/13 06:20:49;;;;;;;20.10;12.20;;;;;;;;;;5115893;27;20052;-82
2023/01/13 06:23:15;;;;;;;19.33;12.23;;;;;;;;;;5111885;28;20019;-81
2023/01/13 06:25:51;;;;;;;18.98;12.38;;;;;;;;;;5116833;28;20536;-82
2023/01/13 06:28:17;;;;;;;18.70;11.82;;;;;;;;;;5105509;28;20051;-79
2023/01/13 06:30:46;;;;;;;17.75;10.35;;;;;;;;;;5106438;27;20035;-81
2023/01/13 06:33:15;;;;;;;17.50;11.38;;;;;;;;;;5109500;28;20047;-81
2023/01/13 06:35:42;;;;;;;18.80;10.18;;;;;;;;;;5113583;27;20038;-82
2023/01/13 06:38:10;;;;;;;16.33;10.82;;;;;;;;;;5108734;28;20020;-82
2023/01/13 06:40:36;;;;;;;18.17;10.93;;;;;;;;;;5109819;28;20574;-82
2023/01/13 06:43:15;;;;;;;15.43;9.75;;;;;;;;;;5106231;28;20035;-82
2023/01/13 06:45:52;;;;;;;18.17;10.50;;;;;;;;;;5100779;28;20062;-82
2023/01/13 06:48:19;;;;;;;19.75;10.52;;;;;;;;;;5110814;28;20056;-81
2023/01/13 06:50:45;;;;;;;17.48;11.23;;;;;;;;;;5108256;28;20032;-82
2023/01/13 06:53:11;;;;;;;16.38;10.00;;;;;;;;;;5107193;28;20451;-80
2023/01/13 06:55:37;;;;;;;18.33;10.77;;;;;;;;;;5111556;28;20488;-82
2023/01/13 06:58:04;;;;;;;14.55;10.35;;;;;;;;;;5115026;28;20034;-82
2023/01/13 07:00:31;;;;;;;20.02;11.55;;;;;;;;;;5105622;28;20371;-81
2023/01/13 07:03:11;;;;;;;16.50;11.93;;;;;;;;;;5099831;28;20272;-82
2023/01/13 07:05:37;;;;;;;18.23;11.57;;;;;;;;;;5109110;28;20027;-82
2023/01/13 07:08:03;;;;;;;16.38;10.35;;;;;;;;;;5103776;28;20035;-82
2023/01/13 07:10:30;;;;;;;17.33;11.35;;;;;;;;;;5109630;28;20026;-82
2023/01/13 07:15:41;;;;;;;17.95;10.18;;;;;;;;;;5108643;28;20047;-81
2023/01/13 07:18:07;;;;;;;18.65;10.50;;;;;;;;;;5102771;28;20024;-82
2023/01/13 07:20:33;;;;;;;16.33;10.57;;;;;;;;;;5106379;28;20496;-81
2023/01/13 07:22:59;;;;;;;17.10;11.07;;;;;;;;;;5110318;28;20389;-81
2023/01/13 07:25:25;;;;;;;20.77;12.10;;;;;;;;;;5102911;28;20024;-82
2023/01/13 07:27:51;;;;;;;18.17;11.20;;;;;;;;;;5103890;28;20051;-82
2023/01/13 07:30:17;;;;;;;16.67;12.27;;;;;;;;;;5106457;28;20030;-82
2023/01/13 07:32:43;;;;;;;16.50;10.98;;;;;;;;;;5112407;28;20716;-79
2023/01/13 07:35:09;;;;;;;16.60;10.77;;;;;;;;;;5107081;28;20106;-80
2023/01/13 07:37:38;;;;;;;16.30;11.02;;;;;;;;;;5107432;28;20043;-82
2023/01/13 07:40:04;;;;;;;16.33;10.55;;;;;;;;;;5109049;28;20024;-81
2023/01/13 07:45:15;;;;;;;16.00;10.98;;;;;;;;;;5107462;28;20123;-82
2023/01/13 07:47:41;;;;;;;16.48;10.38;;;;;;;;;;5100891;28;20059;-82
2023/01/13 07:50:08;;;;;;;12.85;9.85;;;;;;;;;;5099616;28;20039;-82
2023/01/13 07:52:34;;;;;;;15.23;11.80;;;;;;;;;;5098166;28;20028;-82
2023/01/13 07:55:00;;;;;;;19.00;11.32;;;;;;;;;;5098008;28;20035;-80
2023/01/13 07:57:26;;;;;;;17.67;12.32;;;;;;;;;;5103148;28;20031;-80
2023/01/13 07:59:52;;;;;;;17.55;11.55;;;;;;;;;;5100437;28;20024;-80
2023/01/13 08:02:18;;;;;;;19.75;12.20;;;;;;;;;;5103550;28;20027;-81
2023/01/13 08:04:44;;;;;;;17.73;11.43;;;;;;;;;;5106463;28;20036;-81
2023/01/13 08:07:10;;;;;;;16.05;10.43;;;;;;;;;;5110230;28;20532;-81
2023/01/13 08:09:36;;;;;;;20.20;11.05;;;;;;;;;;5101590;28;20043;-82
2023/01/13 08:14:49;;;;;;;18.55;10.57;;;;;;;;;;5113671;28;20070;-82
2023/01/13 08:17:15;;;;;;;19.65;12.75;;;;;;;;;;5105208;28;20040;-81
2023/01/13 08:19:41;;;;;;;16.38;11.07;;;;;;;;;;5106703;28;20052;-80
2023/01/13 08:22:07;;;;;;;17.73;10.57;;;;;;;;;;5109139;28;20024;-81
2023/01/13 08:24:33;;;;;;;20.65;12.10;;;;;;;;;;5100855;28;20024;-81
2023/01/13 08:26:59;;;;;;;21.48;12.20;;;;;;;;;;5102242;28;20027;-79
2023/01/13 08:29:25;;;;;;;18.30;13.50;;;;;;;;;;5122279;28;20058;-81
2023/01/13 08:31:51;;;;;;;20.08;13.30;;;;;;;;;;5121212;28;20015;-81
2023/01/13 08:34:17;;;;;;;23.40;14.68;;;;;;;;;;5105284;28;20031;-82
2023/01/13 08:36:43;;;;;;;25.50;15.60;;;;;;;;;;5113248;28;20401;-81
2023/01/13 08:39:09;;;;;;;24.67;15.07;;;;;;;;;;5121345;27;20019;-82
2023/01/13 08:44:20;;;;;;;18.95;12.27;;;;;;;;;;5122648;28;20055;-81
2023/01/13 08:46:46;;;;;;;17.83;12.18;;;;;;;;;;5122317;28;20039;-79
2023/01/13 08:49:12;;;;;;;17.08;11.90;;;;;;;;;;5123183;28;20042;-81
2023/01/13 08:51:38;;;;;;;22.98;15.68;;;;;;;;;;5105117;28;20032;-82
2023/01/13 08:54:04;;;;;;;19.17;13.02;;;;;;;;;;5102598;28;20032;-81
2023/01/13 08:56:30;;;;;;;18.65;12.50;;;;;;;;;;5101123;28;20093;-81
2023/01/13 08:58:59;;;;;;;18.73;12.40;;;;;;;;;;5101333;28;20028;-82
2023/01/13 09:01:26;;;;;;;23.08;13.15;;;;;;;;;;5101208;28;20021;-82
2023/01/13 09:03:52;;;;;;;20.98;12.85;;;;;;;;;;5099408;28;20095;-81
2023/01/13 09:06:18;;;;;;;17.17;11.25;;;;;;;;;;5107271;28;20034;-80
2023/01/13 09:08:44;;;;;;;18.25;10.90;;;;;;;;;;5118512;28;20035;-81
2023/01/13 09:14:10;;;;;;;19.08;11.32;;;;;;;;;;5101164;28;20035;-82
2023/01/13 09:16:36;;;;;;;17.48;10.20;;;;;;;;;;5099548;28;20020;-82
2023/01/13 09:19:02;;;;;;;15.48;9.10;;;;;;;;;;5100085;28;20043;-81
2023/01/13 09:21:28;;;;;;;15.98;9.13;;;;;;;;;;5105331;28;20473;-81
2023/01/13 09:23:54;;;;;;;18.00;10.55;;;;;;;;;;5110104;28;20039;-82
2023/01/13 09:26:21;;;;;;;16.33;10.10;;;;;;;;;;5099902;28;20039;-81
2023/01/13 09:28:47;;;;;;;17.17;10.38;;;;;;;;;;5108038;28;20031;-81
2023/01/13 09:31:13;;;;;;;17.90;10.32;;;;;;;;;;5120121;28;20035;-81
2023/01/13 09:36:24;;;;;;;17.38;10.75;;;;;;;;;;5118024;28;20458;-82
2023/01/13 09:38:50;;;;;;;18.42;10.90;;;;;;;;;;5116381;28;20527;-81
2023/01/13 09:44:07;;;;;;;15.18;9.75;;;;;;;;;;5119392;28;20057;-81
2023/01/13 09:46:42;;;;;;;15.63;9.50;;;;;;;;;;5115220;28;20030;-82
2023/01/13 09:49:19;;;;;;;16.33;9.52;;;;;;;;;;5110115;28;20093;-82
2023/01/13 09:51:48;;;;;;;16.52;9.63;;;;;;;;;;5100182;28;20028;-82
2023/01/13 09:54:33;;;;;;;13.23;8.60;;;;;;;;;;5100440;28;20020;-81
2023/01/13 09:56:59;;;;;;;16.98;10.10;;;;;;;;;;5105171;28;20035;-81
2023/01/13 09:59:31;;;;;;;19.90;12.65;;;;;;;;;;5115888;28;20086;-81
2023/01/13 10:02:07;;;;;;;17.73;11.37;;;;;;;;;;5100171;28;20050;-81
2023/01/13 10:04:33;;;;;;;17.83;10.18;;;;;;;;;;5115258;28;20033;-82
2023/01/13 10:07:02;;;;;;;15.77;9.43;;;;;;;;;;5119343;28;20028;-81
2023/01/13 10:09:43;;;;;;;17.85;11.05;;;;;;;;;;5117122;28;20012;-81
2023/01/13 10:15:03;;;;;;;17.75;10.18;;;;;;;;;;5116426;28;20063;-81
2023/01/13 10:17:48;;;;;;;15.82;10.75;;;;;;;;;;5118701;28;20398;-80
2023/01/13 10:20:29;;;;;;;17.98;10.38;;;;;;;;;;5118881;28;20024;-79
2023/01/13 10:23:07;;;;;;;16.05;9.82;;;;;;;;;;5109217;28;20028;-82
2023/01/13 10:25:53;;;;;;;16.65;11.45;;;;;;;;;;5119599;28;20034;-82
2023/01/13 10:28:22;;;;;;;19.27;11.45;;;;;;;;;;5123330;28;20016;-79
2023/01/13 10:30:48;;;;;;;18.45;11.30;;;;;;;;;;5117695;28;20050;-82
2023/01/13 10:33:19;;;;;;;16.67;11.18;;;;;;;;;;5105938;28;20031;-82
2023/01/13 10:36:02;;;;;;;17.38;11.85;;;;;;;;;;5111871;28;20031;-82
2023/01/13 10:38:28;;;;;;;16.98;10.88;;;;;;;;;;5120379;28;20106;-82
2023/01/13 10:40:55;;;;;;;17.33;12.27;;;;;;;;;;5113717;27;20060;-81
2023/01/13 10:43:22;;;;;;;16.08;11.15;;;;;;;;;;5110668;27;20106;-81
2023/01/13 10:45:59;;;;;;;20.55;12.50;;;;;;;;;;5110831;28;20036;-80
2023/01/13 10:48:31;;;;;;;17.98;11.98;;;;;;;;;;5113152;28;20507;-82
2023/01/13 10:50:57;;;;;;;16.05;11.30;;;;;;;;;;5108745;28;20024;-82
2023/01/13 10:53:25;;;;;;;21.77;11.52;;;;;;;;;;5110709;28;20031;-83
2023/01/13 10:56:01;;;;;;;19.85;11.55;;;;;;;;;;5108836;28;20064;-83
2023/01/13 10:58:27;;;;;;;20.17;10.90;;;;;;;;;;5117814;28;20027;-82
2023/01/13 11:01:01;;;;;;;20.27;12.30;;;;;;;;;;5110860;28;20075;-81
2023/01/13 11:03:47;;;;;;;16.50;10.38;;;;;;;;;;5114112;28;20050;-81
2023/01/13 11:06:20;;;;;;;16.33;10.95;;;;;;;;;;5112899;28;20004;-79
2023/01/13 11:08:48;;;;;;;22.88;13.77;;;;;;;;;;5130432;28;20027;-81
2023/01/13 11:11:23;;;;;;;18.20;10.45;;;;;;;;;;5115296;28;20026;-82
2023/01/13 11:14:35;;;;;;;17.10;9.68;;;;;;;;;;5106922;28;20703;-83
2023/01/13 11:16:42;;;;;;;17.27;10.02;;;;;;;;;;5096987;28;20028;-82
2023/01/13 11:19:13;;;;;;;15.70;10.25;;;;;;;;;;5101134;28;20045;-81
2023/01/13 11:21:52;;;;;;;19.02;10.82;;;;;;;;;;5117558;28;20499;-82
2023/01/13 11:24:22;;;;;;;16.05;9.93;;;;;;;;;;5106672;28;20039;-80
2023/01/13 11:27:08;;;;;;;16.60;10.05;;;;;;;;;;5096394;28;20032;-82
2023/01/13 11:29:34;;;;;;;16.27;10.27;;;;;;;;;;5104373;28;20040;-82
2023/01/13 11:32:33;;;;;;;14.85;8.95;;;;;;;;;;5113575;28;20027;-81
2023/01/13 11:35:09;;;;;;;14.38;9.52;;;;;;;;;;5042411;28;20056;-82
2023/01/13 11:37:38;;;;;;;15.38;10.02;;;;;;;;;;5055142;28;20041;-83
2023/01/13 11:40:16;;;;;;;15.07;9.65;;;;;;;;;;5041331;28;20021;-82
2023/01/13 11:42:45;;;;;;;16.13;10.25;;;;;;;;;;5063457;28;20548;-79
2023/01/13 11:45:17;;;;;;;12.45;9.27;;;;;;;;;;5057059;28;20446;-80
2023/01/13 11:47:47;;;;;;;13.67;9.07;;;;;;;;;;5053231;28;20033;-79
2023/01/13 11:50:18;;;;;;;16.65;8.27;;;;;;;;;;5071700;28;20279;-80
2023/01/13 11:53:07;;;;;;;13.40;8.10;;;;;;;;;;5057141;28;20443;-79
2023/01/13 11:55:45;;;;;;;14.55;8.55;;;;;;;;;;5060111;28;20556;-79
2023/01/13 11:58:20;;;;;;;15.88;8.60;;;;;;;;;;5071250;28;20126;-79
2023/01/13 12:00:46;;;;;;;16.13;9.40;;;;;;;;;;5072408;28;20020;-80
2023/01/13 12:03:27;;;;;;;15.50;9.18;;;;;;;;;;5060940;28;20020;-80
2023/01/13 12:05:58;;;;;;;13.65;9.15;;;;;;;;;;5076715;28;20048;-78
2023/01/13 12:08:44;;;;;;;14.15;9.68;;;;;;;;;;5088557;28;20424;-80
2023/01/13 12:11:15;;;;;;;17.45;9.23;;;;;;;;;;5065076;28;20428;-79
2023/01/13 12:13:58;;;;;;;14.75;10.30;;;;;;;;;;5073507;28;20029;-80
2023/01/13 12:16:29;;;;;;;14.60;9.77;;;;;;;;;;5063594;28;20039;-79
2023/01/13 12:19:13;;;;;;;15.52;9.98;;;;;;;;;;5069919;28;20031;-80
2023/01/13 12:21:48;;;;;;;14.07;9.65;;;;;;;;;;5080643;28;20079;-80
2023/01/13 12:24:22;;;;;;;14.38;10.18;;;;;;;;;;5078649;28;20028;-80
2023/01/13 12:26:59;;;;;;;15.75;8.85;;;;;;;;;;5079245;28;20037;-80
2023/01/13 12:29:30;;;;;;;13.55;9.80;;;;;;;;;;5072396;28;20098;-80
2023/01/13 12:31:56;;;;;;;15.68;9.40;;;;;;;;;;5075508;28;20035;-79
2023/01/13 12:34:25;;;;;;;11.73;8.38;;;;;;;;;;5084512;28;20029;-80
2023/01/13 12:36:59;;;;;;;15.82;9.23;;;;;;;;;;5080879;28;20044;-81
2023/01/13 12:39:25;;;;;;;15.68;10.20;;;;;;;;;;5090297;28;20020;-79
2023/01/13 12:44:58;;;;;;;12.82;9.27;;;;;;;;;;5104143;28;20179;-79
2023/01/13 12:47:37;;;;;;;13.32;9.73;;;;;;;;;;5118867;28;20036;-78
2023/01/13 12:50:24;;;;;;;15.50;9.48;;;;;;;;;;5123405;28;20032;-78
2023/01/13 12:52:57;;;;;;;15.23;9.15;;;;;;;;;;5117208;28;20023;-80
2023/01/13 12:55:23;;;;;;;;;;;;;;;;;;5101262;28;20036;-79
2023/01/13 12:57:57;;;;;;;16.08;9.40;;;;;;;;;;5099198;28;19904;-79
2023/01/13 13:00:23;;;;;;;14.32;8.82;;;;;;;;;;5113068;28;20354;-79
2023/01/13 13:03:10;;;;;;;14.32;9.07;;;;;;;;;;5119195;28;20015;-79
2023/01/13 13:05:36;;;;;;;16.17;9.70;;;;;;;;;;5114072;28;20401;-80
2023/01/13 13:08:10;;;;;;;16.10;11.15;;;;;;;;;;5118625;28;20028;-79
2023/01/13 13:10:38;;;;;;;16.58;10.38;;;;;;;;;;5115709;28;20039;-79
2023/01/13 13:13:20;;;;;;;16.60;9.30;;;;;;;;;;5106670;28;20076;-79
2023/01/13 13:15:46;;;;;;;15.15;8.75;;;;;;;;;;5094924;28;20052;-78
2023/01/13 13:18:25;;;;;;;14.73;9.20;;;;;;;;;;5098570;28;20076;-79
2023/01/13 13:21:08;;;;;;;15.63;9.15;;;;;;;;;;5109755;28;20026;-78
2023/01/13 13:23:38;;;;;;;15.38;9.40;;;;;;;;;;5098090;28;20020;-78
2023/01/13 13:26:16;;;;;;;16.08;8.98;;;;;;;;;;5111980;28;20430;-78
2023/01/13 13:29:01;;;;;;;13.90;8.32;;;;;;;;;;5097856;28;20027;-78
2023/01/13 13:31:35;;;;;;;11.75;8.10;;;;;;;;;;5095155;28;20024;-78
2023/01/13 13:34:01;;;;;;;12.80;8.77;;;;;;;;;;5099488;28;20034;-78
2023/01/13 13:36:46;;;;;;;13.10;8.50;;;;;;;;;;5113784;28;20035;-79
2023/01/13 13:47:44;;;;;;;17.88;9.65;;;;;;;;;;5115390;28;20092;-80
2023/01/13 13:50:14;;;;;;;13.85;8.45;;;;;;;;;;5112610;28;20032;-78
2023/01/13 13:53:04;;;;;;;13.63;8.85;;;;;;;;;;5114614;28;20513;-78
2023/01/13 13:55:31;;;;;;;14.07;8.88;;;;;;;;;;5095574;28;20601;-78
2023/01/13 13:57:57;;;;;;;14.45;8.85;;;;;;;;;;5108474;28;20023;-78
2023/01/13 14:00:23;;;;;;;12.43;7.75;;;;;;;;;;5112916;28;20024;-78
2023/01/13 14:02:52;;;;;;;12.75;8.65;;;;;;;;;;5114797;28;20024;-78
2023/01/13 14:05:19;;;;;;;12.95;8.75;;;;;;;;;;5098642;28;20544;-79
2023/01/13 14:07:47;;;;;;;14.75;9.27;;;;;;;;;;5095500;28;20035;-78
2023/01/13 14:10:18;;;;;;;14.93;8.90;;;;;;;;;;5106660;28;20487;-79
2023/01/13 14:12:44;;;;;;;14.65;8.38;;;;;;;;;;5092617;28;20028;-78
2023/01/13 14:15:25;;;;;;;14.00;8.63;;;;;;;;;;5108700;28;20023;-79
2023/01/13 14:17:52;;;;;;;12.60;7.57;;;;;;;;;;5104095;28;20027;-79
2023/01/13 14:20:18;;;;;;;16.70;9.30;;;;;;;;;;5103414;28;20108;-79
2023/01/13 14:22:48;;;;;;;15.00;8.63;;;;;;;;;;5109230;28;20016;-79
2023/01/13 14:25:28;;;;;;;12.75;8.05;;;;;;;;;;5108218;28;20035;-79
2023/01/13 14:27:55;;;;;;;15.43;8.18;;;;;;;;;;5100195;28;20020;-79
2023/01/13 14:30:22;;;;;;;22.77;12.32;;;;;;;;;;5113566;28;20024;-79
2023/01/13 14:32:48;;;;;;;20.23;11.75;;;;;;;;;;5121725;28;20058;-79
2023/01/13 14:35:15;;;;;;;19.73;12.10;;;;;;;;;;5112413;28;20429;-79
2023/01/13 14:37:42;;;;;;;26.55;16.55;;;;;;;;;;5104701;28;20447;-78
2023/01/13 14:40:27;;;;;;;19.60;12.35;;;;;;;;;;5105732;28;20398;-78
2023/01/13 14:42:59;;;;;;;14.50;9.77;;;;;;;;;;5092663;28;20016;-79
2023/01/13 14:45:26;;;;;;;16.42;9.65;;;;;;;;;;5094508;28;20042;-78
2023/01/13 14:47:53;;;;;;;14.82;10.60;;;;;;;;;;5093790;28;20020;-78
2023/01/13 14:50:23;;;;;;;19.75;12.45;;;;;;;;;;5100820;28;20107;-80
2023/01/13 14:52:54;;;;;;;14.95;9.88;;;;;;;;;;5111495;28;20059;-78
2023/01/13 14:55:23;;;;;;;15.05;9.52;;;;;;;;;;5097862;28;20024;-79
2023/01/13 14:57:49;;;;;;;15.93;10.40;;;;;;;;;;5095371;28;20055;-80
2023/01/13 15:00:17;;;;;;;15.45;9.40;;;;;;;;;;5106819;28;20017;-79
2023/01/13 15:02:43;;;;;;;16.15;10.43;;;;;;;;;;5093841;28;20016;-79
2023/01/13 15:05:18;;;;;;;18.15;11.15;;;;;;;;;;5093067;28;20035;-79
2023/01/13 15:07:50;;;;;;;16.88;10.63;;;;;;;;;;5099617;28;20027;-80
2023/01/13 15:10:17;;;;;;;19.05;13.73;;;;;;;;;;5096700;28;20061;-79
2023/01/13 15:12:43;;;;;;;17.40;11.73;;;;;;;;;;5101845;28;20036;-79
2023/01/13 15:15:24;;;;;;;17.30;11.85;;;;;;;;;;5093552;28;20024;-79
2023/01/13 15:17:50;;;;;;;18.73;12.48;;;;;;;;;;5119886;27;20015;-79
2023/01/13 15:20:18;;;;;;;20.45;13.10;;;;;;;;;;5111986;28;20027;-79
2023/01/13 15:22:44;;;;;;;22.77;13.90;;;;;;;;;;5105284;28;20110;-78
2023/01/13 15:25:10;;;;;;;18.02;12.40;;;;;;;;;;5106838;28;20059;-78
2023/01/13 15:27:37;;;;;;;19.70;11.25;;;;;;;;;;5102560;27;20024;-78
2023/01/13 15:30:13;;;;;;;17.02;11.75;;;;;;;;;;5107365;28;20521;-78
2023/01/13 15:32:39;;;;;;;16.88;10.75;;;;;;;;;;5096259;28;20044;-79
2023/01/13 15:35:05;;;;;;;19.15;11.95;;;;;;;;;;5105095;28;20062;-79
2023/01/13 15:37:31;;;;;;;19.52;11.18;;;;;;;;;;5111111;27;20094;-79
2023/01/13 15:39:57;;;;;;;21.40;13.32;;;;;;;;;;5111932;27;20457;-79